Time;durP1;ratioP1;P1;durP2;ratioP2;P2;SDS_P1;SDS_P2;PMS_P1;PMS_P2;Temp;Humidity;BMP_temperature;BMP_pressure;BME280_temperature;BME280_humidity;BME280_pressure;Samples;Min_cycle;Max_cycle;Signal;HPM_P1;HPM_P2
2023/07/24 00:00:13;;;;;;;13.50;6.20;;;;;;;-145.69;52.21;51826.56;5094341;28;20200;-84
2023/07/24 00:02:40;;;;;;;12.20;6.25;;;;;;;-145.69;50.26;51830.50;5094954;28;20206;-86
2023/07/24 00:05:07;;;;;;;13.43;6.88;;;;;;;-145.69;50.06;51830.50;5096475;28;20649;-85
2023/07/24 00:07:35;;;;;;;16.27;6.28;;;;;;;-145.69;49.75;51824.56;5094708;28;20569;-85
2023/07/24 00:10:02;;;;;;;13.80;6.43;;;;;;;-145.69;50.48;51848.34;5094380;28;20206;-84
2023/07/24 00:12:28;;;;;;;13.32;6.10;;;;;;;-145.69;50.83;51836.44;5093512;28;20213;-84
2023/07/24 00:14:55;;;;;;;14.07;6.70;;;;;;;-145.69;51.53;51816.66;5093587;28;20457;-84
2023/07/24 00:17:21;;;;;;;14.23;6.65;;;;;;;-145.69;51.33;51850.31;5096306;28;20205;-84
2023/07/24 00:19:49;;;;;;;11.73;5.40;;;;;;;-145.69;51.15;51834.47;5096738;28;20186;-85
2023/07/24 00:22:15;;;;;;;13.55;6.18;;;;;;;-145.69;51.19;51838.44;5097608;28;20284;-84
2023/07/24 00:24:43;;;;;;;14.18;6.80;;;;;;;-145.69;50.74;51826.56;5094144;28;20225;-85
2023/07/24 00:27:10;;;;;;;13.32;6.50;;;;;;;-145.69;50.70;51870.13;5095752;28;20205;-85
2023/07/24 00:29:37;;;;;;;12.50;6.20;;;;;;;-145.69;50.90;51838.44;5092315;28;20729;-84
2023/07/24 00:32:04;;;;;;;13.10;6.35;;;;;;;-145.69;51.00;51856.25;5093997;28;20206;-84
2023/07/24 00:34:31;;;;;;;14.25;6.68;;;;;;;-145.69;50.27;51828.53;5095048;28;20320;-85
2023/07/24 00:36:57;;;;;;;15.25;6.65;;;;;;;-145.69;50.11;51848.34;5096288;28;20213;-85
2023/07/24 00:39:24;;;;;;;14.65;6.95;;;;;;;-145.69;50.29;51848.34;5095803;28;20259;-85
2023/07/24 00:41:52;;;;;;;15.27;6.55;;;;;;;-145.69;49.95;51838.44;5093005;28;20241;-84
2023/07/24 00:44:19;;;;;;;14.32;6.50;;;;;;;-145.69;50.36;51818.63;5094233;28;20206;-85
2023/07/24 00:46:46;;;;;;;14.40;6.65;;;;;;;-145.69;51.76;51828.53;5101097;28;20198;-85
2023/07/24 00:49:14;;;;;;;14.10;6.10;;;;;;;-145.69;53.57;51838.44;5100276;28;20198;-85
2023/07/24 00:51:41;;;;;;;16.38;6.30;;;;;;;-145.69;53.25;51818.63;5098111;28;20198;-86
2023/07/24 00:54:09;;;;;;;13.55;6.45;;;;;;;-145.69;52.10;51838.44;5096281;28;20711;-85
2023/07/24 00:56:36;;;;;;;12.68;6.65;;;;;;;-145.69;50.85;51834.47;5097932;28;20194;-84
2023/07/24 00:59:04;;;;;;;15.70;6.72;;;;;;;-145.69;50.55;51812.69;5094351;28;20213;-85
2023/07/24 01:01:30;;;;;;;12.90;6.28;;;;;;;-145.69;50.19;51860.22;5092906;28;20198;-85
2023/07/24 01:03:58;;;;;;;12.82;6.22;;;;;;;-145.69;50.68;51822.59;5093267;28;20205;-84
2023/07/24 01:06:25;;;;;;;13.55;5.97;;;;;;;-145.69;51.19;51874.06;5092156;28;20200;-85
2023/07/24 01:08:51;;;;;;;11.32;5.25;;;;;;;-145.69;51.44;51842.38;5093163;28;20206;-84
2023/07/24 01:11:21;;;;;;;11.75;5.88;;;;;;;-145.69;52.14;51854.28;5092889;28;20196;-85
2023/07/24 01:13:57;;;;;;;13.23;6.15;;;;;;;-145.69;52.06;51866.16;5092080;28;20764;-84
2023/07/24 01:16:31;;;;;;;14.65;6.38;;;;;;;-145.69;52.21;51858.22;5093154;28;20209;-84
2023/07/24 01:18:58;;;;;;;14.35;6.35;;;;;;;-145.69;52.42;51838.44;5092796;28;20198;-85
2023/07/24 01:21:34;;;;;;;12.10;6.47;;;;;;;-145.69;51.40;51840.41;5096292;28;20201;-85
2023/07/24 01:24:15;;;;;;;15.30;7.05;;;;;;;-145.69;51.44;51846.34;5097938;28;20202;-84
2023/07/24 01:26:44;;;;;;;12.48;6.40;;;;;;;-145.69;52.38;51840.41;5096540;28;20441;-84
2023/07/24 01:29:10;;;;;;;14.85;6.55;;;;;;;-145.69;51.17;51822.59;5095557;28;20213;-84
2023/07/24 01:31:37;;;;;;;13.48;6.15;;;;;;;-145.69;50.97;51862.19;5097117;28;20197;-84
2023/07/24 01:34:04;;;;;;;14.05;6.82;;;;;;;-145.69;51.23;51842.38;5098925;28;20225;-84
2023/07/24 01:36:30;;;;;;;14.40;6.63;;;;;;;-145.69;51.39;51854.28;5097706;28;20206;-84
2023/07/24 01:38:57;;;;;;;12.48;6.25;;;;;;;-145.69;51.15;51870.13;5099094;28;20205;-84
2023/07/24 01:41:25;;;;;;;13.15;6.25;;;;;;;-145.69;51.46;51868.13;5097377;28;20198;-84
2023/07/24 01:43:53;;;;;;;13.30;6.40;;;;;;;-145.69;52.60;51878.03;5097509;28;20263;-84
2023/07/24 01:46:20;;;;;;;15.88;6.97;;;;;;;-145.69;52.56;51846.34;5099292;28;20202;-85
2023/07/24 01:48:46;;;;;;;14.27;6.68;;;;;;;-145.69;52.10;51838.44;5098583;28;20202;-84
2023/07/24 01:51:13;;;;;;;13.60;6.43;;;;;;;-145.69;52.13;51874.06;5098491;28;20289;-85
2023/07/24 01:53:39;;;;;;;21.05;7.40;;;;;;;-145.69;52.20;51882.00;5099593;28;20234;-84
2023/07/24 01:56:06;;;;;;;16.75;7.00;;;;;;;-145.69;52.46;51862.19;5097814;28;20193;-84
2023/07/24 01:58:32;;;;;;;13.63;6.47;;;;;;;-145.69;52.93;51854.28;5098919;28;20198;-83
2023/07/24 02:01:00;;;;;;;18.63;6.38;;;;;;;-145.69;52.49;51880.00;5099469;28;20209;-84
2023/07/24 02:03:27;;;;;;;17.05;6.95;;;;;;;-145.69;53.04;51838.44;5098022;28;20206;-84
2023/07/24 02:05:53;;;;;;;15.02;6.28;;;;;;;-145.69;53.82;51870.13;5099699;28;20201;-85
2023/07/24 02:08:20;;;;;;;16.83;7.03;;;;;;;-145.69;53.78;51856.25;5097074;28;20191;-84
2023/07/24 02:10:49;;;;;;;13.07;6.70;;;;;;;-145.69;53.68;51832.50;5098217;28;20286;-84
2023/07/24 02:13:16;;;;;;;15.00;7.20;;;;;;;-145.69;53.85;51883.97;5096628;28;20237;-84
2023/07/24 02:15:42;;;;;;;15.95;6.88;;;;;;;-145.69;54.38;51866.16;5094944;28;20587;-84
2023/07/24 02:18:10;;;;;;;13.82;6.70;;;;;;;-145.69;55.06;51862.19;5096670;28;20202;-84
2023/07/24 02:20:37;;;;;;;13.90;7.22;;;;;;;-145.69;56.31;51870.13;5094532;28;20580;-84
2023/07/24 02:23:04;;;;;;;15.57;7.72;;;;;;;-145.69;55.64;51880.00;5095365;28;20201;-84
2023/07/24 02:25:30;;;;;;;12.63;5.90;;;;;;;-145.69;55.72;51858.22;5096583;28;20194;-84
2023/07/24 02:27:57;;;;;;;15.57;6.95;;;;;;;-145.69;56.31;51866.16;5096392;28;20198;-85
2023/07/24 02:30:23;;;;;;;16.00;7.43;;;;;;;-145.69;55.86;51862.19;5095483;28;20207;-85
2023/07/24 02:32:50;;;;;;;16.67;6.93;;;;;;;-145.69;55.41;51878.03;5098473;28;20198;-85
2023/07/24 02:35:18;;;;;;;14.80;6.93;;;;;;;-145.69;55.20;51834.47;5096164;28;20220;-85
2023/07/24 02:37:45;;;;;;;17.30;6.90;;;;;;;-145.69;54.87;51850.31;5080047;28;20242;-85
2023/07/24 02:40:12;;;;;;;16.92;6.93;;;;;;;-145.69;54.95;51874.06;5057456;28;20289;-85
2023/07/24 02:42:39;;;;;;;14.98;6.82;;;;;;;-145.69;55.92;51854.28;5080561;28;20542;-84
2023/07/24 02:45:10;;;;;;;14.85;6.53;;;;;;;-145.69;55.65;51870.13;5075685;28;20233;-84
2023/07/24 02:47:37;;;;;;;16.05;6.95;;;;;;;-145.69;55.28;51870.13;5077529;28;20740;-85
2023/07/24 02:50:04;;;;;;;12.02;6.45;;;;;;;-145.69;55.79;51854.28;5064676;28;20241;-84
2023/07/24 02:52:32;;;;;;;12.90;6.95;;;;;;;-145.69;54.95;51887.94;5095102;28;20277;-85
2023/07/24 02:54:58;;;;;;;14.30;6.40;;;;;;;-145.69;56.17;51850.31;5094068;28;20229;-84
2023/07/24 02:57:25;;;;;;;17.83;6.90;;;;;;;-145.69;55.62;51903.78;5095957;28;20206;-85
2023/07/24 02:59:52;;;;;;;14.02;6.70;;;;;;;-145.69;56.26;51868.13;5095721;28;20661;-85
2023/07/24 03:02:18;;;;;;;14.77;7.70;;;;;;;-145.69;56.92;51885.94;5093493;28;20429;-84
2023/07/24 03:04:45;;;;;;;14.85;7.28;;;;;;;-145.69;56.79;51913.69;5094220;28;20199;-85
2023/07/24 03:07:11;;;;;;;13.30;6.97;;;;;;;-145.69;56.40;51866.16;5095670;28;20599;-85
2023/07/24 03:09:39;;;;;;;13.18;7.28;;;;;;;-145.69;56.19;51893.88;5094631;28;20205;-84
2023/07/24 03:12:07;;;;;;;12.48;6.63;;;;;;;-145.69;57.10;51882.00;5092992;28;20590;-85
2023/07/24 03:14:33;;;;;;;14.05;6.88;;;;;;;-145.69;57.48;51882.00;5055447;28;1114848;-84
2023/07/24 03:17:00;;;;;;;15.30;6.50;;;;;;;-145.69;58.01;51905.75;5094933;28;20208;-85
2023/07/24 03:19:26;;;;;;;14.75;7.22;;;;;;;-145.69;57.80;51874.06;5095530;28;20198;-85
2023/07/24 03:21:53;;;;;;;15.60;6.65;;;;;;;-145.69;57.48;51846.34;5095429;28;20197;-85
2023/07/24 03:24:19;;;;;;;14.35;7.47;;;;;;;-145.69;58.10;51872.09;5095358;28;20205;-85
2023/07/24 03:26:47;;;;;;;15.75;6.60;;;;;;;-145.69;57.96;51848.34;5095489;28;20689;-84
2023/07/24 03:29:14;;;;;;;16.50;6.70;;;;;;;-145.69;58.05;51882.00;5094597;28;20202;-85
2023/07/24 03:31:40;;;;;;;13.90;6.70;;;;;;;-145.69;57.83;51874.06;5095614;28;20649;-85
2023/07/24 03:34:07;;;;;;;13.00;6.03;;;;;;;-145.69;57.87;51858.22;5097765;28;20229;-86
2023/07/24 03:36:33;;;;;;;14.13;7.20;;;;;;;-145.69;57.93;51907.72;5100083;28;20222;-85
2023/07/24 03:39:00;;;;;;;11.18;6.35;;;;;;;-145.69;58.45;51897.84;5078050;28;20550;-85
2023/07/24 03:41:26;;;;;;;15.45;6.95;;;;;;;-145.69;58.08;51915.66;5078471;28;20203;-85
2023/07/24 03:43:54;;;;;;;19.92;7.07;;;;;;;-145.69;57.39;51864.16;5076531;28;20207;-84
2023/07/24 03:46:24;;;;;;;14.73;6.53;;;;;;;-145.69;57.37;51889.91;5074727;28;20205;-83
2023/07/24 03:48:50;;;;;;;15.80;7.03;;;;;;;-145.69;58.48;51872.09;5075095;28;20210;-84
2023/07/24 03:51:17;;;;;;;14.70;7.03;;;;;;;-145.69;58.23;51895.84;5090313;28;20282;-84
2023/07/24 03:53:43;;;;;;;14.10;6.90;;;;;;;-145.69;58.94;51848.34;5094527;28;20209;-85
2023/07/24 03:56:10;;;;;;;16.15;7.05;;;;;;;-145.69;58.23;51878.03;5093763;28;20194;-85
2023/07/24 03:58:38;;;;;;;14.88;7.00;;;;;;;-145.69;57.98;51834.47;5094512;28;20202;-85
2023/07/24 04:01:06;;;;;;;13.48;6.47;;;;;;;-145.69;57.96;51870.13;5094737;28;20204;-85
2023/07/24 04:03:33;;;;;;;15.68;7.25;;;;;;;-145.69;58.15;51874.06;5094490;28;20282;-84
2023/07/24 04:06:00;;;;;;;13.77;6.57;;;;;;;-145.69;57.46;51862.19;5093830;28;20837;-85
2023/07/24 04:08:26;;;;;;;22.48;6.97;;;;;;;-145.69;57.77;51850.31;5094400;28;20241;-84
2023/07/24 04:10:53;;;;;;;16.27;6.55;;;;;;;-145.69;57.30;51874.06;5094969;28;20288;-85
2023/07/24 04:13:22;;;;;;;16.30;7.13;;;;;;;-145.69;57.13;51874.06;5094603;28;20326;-85
2023/07/24 04:15:48;;;;;;;16.17;6.75;;;;;;;-145.69;56.97;51854.28;5095158;28;20226;-85
2023/07/24 04:18:16;;;;;;;16.25;6.45;;;;;;;-145.69;55.81;51834.47;5094542;28;20213;-84
2023/07/24 04:20:43;;;;;;;13.95;6.50;;;;;;;-145.69;56.23;51862.19;5084496;28;20198;-84
2023/07/24 04:23:09;;;;;;;13.48;6.28;;;;;;;-145.69;56.02;51846.34;5092790;28;20191;-85
2023/07/24 04:25:36;;;;;;;12.77;7.00;;;;;;;-145.69;57.25;51862.19;5093033;28;20437;-85
2023/07/24 04:28:02;;;;;;;18.73;7.50;;;;;;;-145.69;56.56;51862.19;5093714;28;20208;-86
2023/07/24 04:30:29;;;;;;;13.45;6.85;;;;;;;-145.69;56.19;51880.00;5095820;28;20202;-85
2023/07/24 04:32:55;;;;;;;15.00;6.75;;;;;;;-145.69;55.61;51848.34;5093827;28;20201;-85
2023/07/24 04:35:23;;;;;;;14.13;6.60;;;;;;;-145.69;55.11;51854.28;5093784;28;20228;-84
2023/07/24 04:37:51;;;;;;;14.48;6.78;;;;;;;-145.69;55.49;51882.00;5093473;28;20201;-84
2023/07/24 04:40:17;;;;;;;14.50;6.65;;;;;;;-145.69;55.16;51878.03;5088812;28;20202;-85
2023/07/24 04:42:44;;;;;;;14.00;6.68;;;;;;;-145.69;55.29;51893.88;5093716;28;20645;-84
2023/07/24 04:45:11;;;;;;;13.55;6.53;;;;;;;-145.69;55.51;51876.06;5093252;28;20205;-84
2023/07/24 04:47:38;;;;;;;14.25;7.10;;;;;;;-145.69;56.01;51880.00;5092169;28;20676;-84
2023/07/24 04:50:06;;;;;;;12.80;6.22;;;;;;;-145.69;55.34;51860.22;5093105;28;20526;-86
2023/07/24 04:52:34;;;;;;;10.57;6.00;;;;;;;-145.69;55.28;51834.47;5091985;28;20248;-85
2023/07/24 04:55:00;;;;;;;13.13;6.30;;;;;;;-145.69;54.60;51866.16;5093157;28;20264;-85
2023/07/24 04:57:27;;;;;;;11.77;6.15;;;;;;;-145.69;54.32;51824.56;5093230;28;20284;-85
2023/07/24 04:59:53;;;;;;;16.85;6.50;;;;;;;-145.69;54.56;51834.47;5092887;28;20220;-84
2023/07/24 05:02:20;;;;;;;16.48;6.82;;;;;;;-145.69;55.18;51840.41;5093209;28;20209;-85
2023/07/24 05:04:47;;;;;;;12.95;6.53;;;;;;;-145.69;54.61;51822.59;5094663;28;20299;-85
2023/07/24 05:07:14;;;;;;;12.48;5.88;;;;;;;-145.69;54.18;51842.38;5095346;28;20718;-85
2023/07/24 05:09:41;;;;;;;14.05;7.20;;;;;;;-145.69;53.70;51834.47;5093099;28;20194;-85
2023/07/24 05:12:08;;;;;;;10.85;5.97;;;;;;;-145.69;53.76;51854.28;5094212;28;20204;-85
2023/07/24 05:14:35;;;;;;;15.20;6.53;;;;;;;-145.69;53.85;51834.47;5093393;28;20241;-85
2023/07/24 05:17:01;;;;;;;11.65;6.03;;;;;;;-145.69;53.51;51842.38;5095907;28;20201;-85
2023/07/24 05:19:28;;;;;;;13.13;6.05;;;;;;;-145.69;54.25;51836.44;5093387;28;20251;-85
2023/07/24 05:21:54;;;;;;;14.77;6.55;;;;;;;-145.69;53.82;51824.56;5093787;28;20198;-85
2023/07/24 05:24:21;;;;;;;13.07;6.60;;;;;;;-145.69;53.98;51826.56;5094781;28;20217;-85
2023/07/24 05:26:49;;;;;;;14.27;6.88;;;;;;;-145.69;53.26;51830.50;5096984;28;20194;-86
2023/07/24 05:29:15;;;;;;;16.83;6.63;;;;;;;-145.69;54.38;51834.47;5097818;28;20236;-85
2023/07/24 05:31:42;;;;;;;14.00;7.03;;;;;;;-145.69;54.63;51866.16;5097956;28;20202;-85
2023/07/24 05:34:09;;;;;;;15.07;6.03;;;;;;;-145.69;53.57;51818.63;5094566;28;20628;-85
2023/07/24 05:36:35;;;;;;;12.88;6.10;;;;;;;-145.69;53.02;51834.47;5094073;28;20656;-85
2023/07/24 05:39:02;;;;;;;16.10;6.25;;;;;;;-145.69;53.82;51838.44;5094289;28;20209;-85
2023/07/24 05:41:28;;;;;;;14.15;6.45;;;;;;;-145.69;54.23;51850.31;5093828;28;20684;-84
2023/07/24 05:43:56;;;;;;;11.82;6.53;;;;;;;-145.69;54.16;51836.44;5093143;28;20202;-84
2023/07/24 05:46:23;;;;;;;11.18;6.05;;;;;;;-145.69;54.04;51842.38;5094163;28;20198;-85
2023/07/24 05:48:52;;;;;;;13.23;6.45;;;;;;;-145.69;54.91;51844.38;5095627;28;20224;-86
2023/07/24 05:51:19;;;;;;;14.27;6.47;;;;;;;-145.69;54.68;51866.16;5095123;28;20194;-85
2023/07/24 05:53:45;;;;;;;13.02;6.15;;;;;;;-145.69;53.82;51838.44;5096410;28;20198;-84
2023/07/24 05:56:12;;;;;;;17.58;5.63;;;;;;;-145.69;53.75;51794.88;5094740;28;20580;-84
2023/07/24 05:58:38;;;;;;;14.73;6.20;;;;;;;-145.69;53.35;51834.47;5094067;28;20201;-82
2023/07/24 06:01:08;;;;;;;17.40;5.82;;;;;;;-145.69;53.24;51818.63;5094803;28;20194;-84
2023/07/24 06:03:34;;;;;;;12.70;6.05;;;;;;;-145.69;54.04;51810.72;5095256;28;20202;-82
2023/07/24 06:06:01;;;;;;;15.27;5.93;;;;;;;-145.69;54.79;51796.84;5095149;28;20201;-84
2023/07/24 06:08:27;;;;;;;12.25;5.53;;;;;;;-145.69;55.04;51808.72;5100580;28;20210;-84
2023/07/24 06:10:54;;;;;;;12.65;5.63;;;;;;;-145.69;54.86;51786.94;5099806;28;20199;-87
2023/07/24 06:13:23;;;;;;;12.38;6.13;;;;;;;-145.69;54.87;51798.81;5101535;28;20688;-85
2023/07/24 06:15:50;;;;;;;14.48;6.03;;;;;;;-145.69;54.05;51814.66;5102466;28;20252;-85
2023/07/24 06:18:18;;;;;;;13.65;5.65;;;;;;;-145.69;53.77;51808.72;5096368;28;20198;-85
2023/07/24 06:20:45;;;;;;;10.27;5.38;;;;;;;-145.69;52.82;51810.72;5096361;28;20663;-84
2023/07/24 06:23:11;;;;;;;10.50;4.95;;;;;;;-145.69;49.33;51814.66;5097836;28;20272;-85
2023/07/24 06:25:38;;;;;;;11.52;5.07;;;;;;;-145.69;50.32;51812.69;5095843;28;20198;-84
2023/07/24 06:28:04;;;;;;;11.15;5.15;;;;;;;-145.69;49.83;51826.56;5096263;28;20201;-84
2023/07/24 06:30:31;;;;;;;11.40;5.72;;;;;;;-145.69;50.29;51800.81;5094234;28;20436;-85
2023/07/24 06:32:57;;;;;;;11.35;5.32;;;;;;;-145.69;50.30;51806.75;5095938;28;20194;-84
2023/07/24 06:35:25;;;;;;;9.70;4.97;;;;;;;-145.69;48.88;51777.03;5095682;28;20236;-83
2023/07/24 06:37:52;;;;;;;11.52;5.20;;;;;;;-145.69;47.46;51790.91;5093594;28;20688;-84
2023/07/24 06:40:18;;;;;;;12.07;4.80;;;;;;;-145.69;47.41;51747.34;5096562;28;20206;-85
2023/07/24 06:42:46;;;;;;;10.25;5.43;;;;;;;-145.69;47.53;51775.06;5095558;28;20194;-84
2023/07/24 06:45:12;;;;;;;10.27;4.85;;;;;;;-145.69;47.31;51759.22;5093985;28;20225;-85
2023/07/24 06:47:39;;;;;;;9.38;4.65;;;;;;;-145.69;46.79;51779.03;5095382;28;20653;-84
2023/07/24 06:50:07;;;;;;;8.73;4.63;;;;;;;-145.69;46.84;51779.03;5095183;28;20205;-84
2023/07/24 06:52:35;;;;;;;12.35;5.25;;;;;;;-145.69;46.61;51790.91;5094284;28;20554;-84
2023/07/24 06:55:01;;;;;;;12.15;4.55;;;;;;;-145.69;46.26;51775.06;5095369;28;20229;-84
2023/07/24 06:57:28;;;;;;;11.02;5.32;;;;;;;-145.69;45.52;51781.00;5095014;28;20217;-84
2023/07/24 06:59:54;;;;;;;9.63;4.65;;;;;;;-145.69;44.94;51783.00;5095263;28;20225;-84
2023/07/24 07:02:21;;;;;;;9.05;4.60;;;;;;;-145.69;44.83;51739.44;5095068;28;20209;-84
2023/07/24 07:04:47;;;;;;;7.40;4.03;;;;;;;-145.69;45.04;51747.34;5095185;28;20202;-84
2023/07/24 07:07:14;;;;;;;8.70;4.20;;;;;;;-145.69;44.74;51759.22;5094950;28;20198;-84
2023/07/24 07:09:42;;;;;;;8.07;4.40;;;;;;;-145.69;43.35;51733.50;5094874;28;20198;-84
2023/07/24 07:12:08;;;;;;;8.90;4.38;;;;;;;-145.69;42.46;51745.38;5095167;28;20200;-83
2023/07/24 07:14:35;;;;;;;7.65;4.28;;;;;;;-145.69;41.92;51747.34;5094283;28;20585;-84
2023/07/24 07:17:01;;;;;;;8.35;4.22;;;;;;;-145.69;41.69;51755.25;5094540;28;20202;-84
2023/07/24 07:19:28;;;;;;;7.32;3.70;;;;;;;-145.69;41.18;51749.31;5093892;28;20198;-84
2023/07/24 07:21:54;;;;;;;7.25;3.67;;;;;;;-145.69;40.44;51731.50;5095012;28;20649;-84
2023/07/24 07:24:21;;;;;;;5.32;3.05;;;;;;;-145.69;39.45;51737.44;5096755;28;20197;-84
2023/07/24 07:26:49;;;;;;;6.85;3.45;;;;;;;-145.69;39.29;51743.38;5094804;28;20206;-84
2023/07/24 07:29:16;;;;;;;6.53;3.13;;;;;;;-145.69;38.80;51731.50;5096646;28;20198;-84
2023/07/24 07:31:42;;;;;;;6.65;3.42;;;;;;;-145.69;38.18;51715.66;5096784;28;20710;-84
2023/07/24 07:34:09;;;;;;;7.65;3.92;;;;;;;-145.69;38.26;51735.47;5096176;28;20199;-84
2023/07/24 07:36:35;;;;;;;4.75;2.70;;;;;;;-145.69;38.11;51767.16;5095135;28;20584;-84
2023/07/24 07:39:02;;;;;;;6.00;3.30;;;;;;;-145.69;38.09;51723.59;5094985;28;20538;-85
2023/07/24 07:41:28;;;;;;;7.22;3.22;;;;;;;-145.69;38.71;51735.47;5094736;28;20687;-85
2023/07/24 07:43:56;;;;;;;5.90;3.30;;;;;;;-145.69;38.75;51731.50;5094219;28;20221;-84
2023/07/24 07:46:23;;;;;;;5.95;3.08;;;;;;;-145.69;38.33;51723.59;5094464;28;20209;-85
2023/07/24 07:48:50;;;;;;;6.28;3.40;;;;;;;-145.69;37.96;51729.53;5096303;28;20206;-85
2023/07/24 07:51:16;;;;;;;6.20;3.28;;;;;;;-145.69;37.90;51699.81;5094300;28;20202;-84
2023/07/24 07:53:43;;;;;;;5.97;3.50;;;;;;;-145.69;38.27;51755.25;5095617;28;20528;-85
2023/07/24 07:56:09;;;;;;;7.05;3.53;;;;;;;-145.69;38.18;51711.72;5095622;28;20596;-85
2023/07/24 07:58:36;;;;;;;6.45;3.10;;;;;;;-145.69;38.40;51745.38;5097365;28;20195;-84
2023/07/24 08:01:06;;;;;;;4.05;2.67;;;;;;;-145.69;38.34;51695.88;5094462;28;20194;-85
2023/07/24 08:03:33;;;;;;;6.47;3.17;;;;;;;-145.69;38.68;51727.53;5094470;28;20194;-85
2023/07/24 08:05:59;;;;;;;9.00;3.35;;;;;;;-145.69;38.61;51759.22;5095816;28;20289;-85
2023/07/24 08:08:26;;;;;;;5.53;3.05;;;;;;;-145.69;38.79;51731.50;5095297;28;20289;-86
2023/07/24 08:10:53;;;;;;;5.47;3.10;;;;;;;-145.69;39.14;51727.53;5094670;28;20209;-85
2023/07/24 08:13:19;;;;;;;5.55;3.05;;;;;;;-145.69;38.77;51731.50;5094052;28;20222;-85
2023/07/24 08:15:46;;;;;;;6.13;3.60;;;;;;;-145.69;38.45;51689.94;5093885;28;20222;-85
2023/07/24 08:18:14;;;;;;;5.15;3.20;;;;;;;-145.69;38.15;51723.59;5094376;28;20194;-84
2023/07/24 08:20:40;;;;;;;6.65;3.60;;;;;;;-145.69;37.48;51691.91;5093576;28;20667;-85
2023/07/24 08:23:07;;;;;;;5.53;3.10;;;;;;;-145.69;37.25;51727.53;5093220;28;20225;-85
2023/07/24 08:25:33;;;;;;;6.43;3.38;;;;;;;-145.69;37.54;51697.84;5093590;28;20198;-85
2023/07/24 08:28:00;;;;;;;6.78;3.35;;;;;;;-145.69;37.05;51715.66;5094197;28;20198;-84
2023/07/24 08:30:26;;;;;;;6.78;3.38;;;;;;;-145.69;37.03;51697.84;5092932;28;20198;-85
2023/07/24 08:32:53;;;;;;;6.45;3.47;;;;;;;-145.69;37.32;51725.56;5094014;28;20221;-85
2023/07/24 08:35:22;;;;;;;7.32;3.15;;;;;;;-145.69;37.17;51715.66;5093451;28;20557;-85
2023/07/24 08:37:48;;;;;;;6.07;3.30;;;;;;;-145.69;37.16;51725.56;5094010;28;20216;-85
2023/07/24 08:40:16;;;;;;;7.30;3.60;;;;;;;-145.69;36.32;51709.72;5093556;28;20209;-85
2023/07/24 08:42:44;;;;;;;5.82;3.38;;;;;;;-145.69;37.06;51711.72;5093884;28;20217;-85
2023/07/24 08:45:13;;;;;;;6.68;3.33;;;;;;;-145.69;36.70;51721.59;5090603;28;20205;-86
2023/07/24 08:47:43;;;;;;;12.40;3.53;;;;;;;-145.69;37.03;51711.72;5074600;28;20226;-85
2023/07/24 08:50:11;;;;;;;8.00;3.75;;;;;;;-145.69;36.92;51691.91;5077252;28;20653;-85
2023/07/24 08:52:39;;;;;;;5.90;3.38;;;;;;;-145.69;36.89;51678.03;5097287;28;20206;-86
2023/07/24 08:55:06;;;;;;;7.80;3.78;;;;;;;-145.69;36.98;51703.78;5098534;28;20194;-85
2023/07/24 08:57:33;;;;;;;5.53;3.40;;;;;;;-145.69;37.42;51699.81;5097010;28;20198;-85
2023/07/24 09:00:04;;;;;;;6.63;3.35;;;;;;;-145.69;37.55;51715.66;5095686;28;20275;-85
2023/07/24 09:02:31;;;;;;;6.32;3.70;;;;;;;-145.69;38.45;51719.63;5097969;28;20198;-86
2023/07/24 09:04:57;;;;;;;7.88;3.67;;;;;;;-145.69;39.21;51725.56;5096726;28;20207;-84
2023/07/24 09:07:24;;;;;;;6.28;3.63;;;;;;;-145.69;38.49;51727.53;5099989;28;20212;-85
2023/07/24 09:09:52;;;;;;;8.93;3.83;;;;;;;-145.69;38.96;51711.72;5097237;28;20197;-86
2023/07/24 09:12:19;;;;;;;7.47;3.58;;;;;;;-145.69;38.99;51693.88;5098999;28;20206;-85
2023/07/24 09:14:45;;;;;;;6.72;3.85;;;;;;;-145.69;39.00;51683.97;5100783;28;20230;-86
2023/07/24 09:17:12;;;;;;;6.95;3.45;;;;;;;-145.69;38.88;51713.69;5100178;28;20226;-86
2023/07/24 09:19:39;;;;;;;6.53;3.63;;;;;;;-145.69;39.34;51715.66;5096619;28;20210;-85
2023/07/24 09:22:10;;;;;;;9.73;3.70;;;;;;;-145.69;39.14;51717.66;5097664;28;20194;-86
2023/07/24 09:24:37;;;;;;;7.28;3.70;;;;;;;-145.69;40.07;51727.53;5096041;28;20198;-84
2023/07/24 09:27:08;;;;;;;5.55;3.40;;;;;;;-145.69;39.98;51739.44;5097158;28;20201;-85
2023/07/24 09:29:35;;;;;;;9.43;3.97;;;;;;;-145.69;40.61;51739.44;5098792;28;20206;-85
2023/07/24 09:32:01;;;;;;;6.57;3.47;;;;;;;-145.69;41.04;51735.47;5096150;28;20234;-86
2023/07/24 09:34:28;;;;;;;6.97;3.92;;;;;;;-145.69;41.26;51729.53;5094531;28;20649;-85
2023/07/24 09:36:55;;;;;;;7.50;3.30;;;;;;;-145.69;41.33;51743.38;5096201;28;20233;-84
2023/07/24 09:39:24;;;;;;;8.00;3.90;;;;;;;-145.69;42.45;51763.19;5094405;28;20594;-84
2023/07/24 09:41:50;;;;;;;7.82;4.05;;;;;;;-145.69;42.85;51759.22;5095844;28;20224;-84
2023/07/24 09:44:18;;;;;;;6.65;3.28;;;;;;;-145.69;42.76;51761.22;5098724;28;20209;-84
2023/07/24 09:46:45;;;;;;;6.80;3.58;;;;;;;-145.69;43.09;51751.31;5098277;28;20204;-85
2023/07/24 09:49:12;;;;;;;9.90;4.40;;;;;;;-145.69;43.86;51765.16;5099097;28;20194;-85
2023/07/24 09:51:39;;;;;;;8.02;3.85;;;;;;;-145.69;44.30;51765.16;5099606;28;20198;-85
2023/07/24 09:54:15;;;;;;;6.05;3.50;;;;;;;-145.69;44.09;51751.31;5097995;28;20212;-85
2023/07/24 09:56:43;;;;;;;6.32;3.47;;;;;;;-145.69;44.71;51755.25;5095824;28;20253;-85
2023/07/24 09:59:11;;;;;;;9.07;3.30;;;;;;;-145.69;45.76;51755.25;5098668;28;20564;-84
2023/07/24 10:01:40;;;;;;;6.63;3.60;;;;;;;-145.69;45.95;51777.03;5099878;28;20591;-84
2023/07/24 10:04:08;;;;;;;7.25;4.05;;;;;;;-145.69;46.50;51781.00;5099464;28;20201;-85
2023/07/24 10:06:35;;;;;;;5.63;3.25;;;;;;;-145.69;46.73;51786.94;5095981;28;20194;-84
2023/07/24 10:09:02;;;;;;;6.45;3.78;;;;;;;-145.69;47.10;51786.94;5096280;28;20206;-85
2023/07/24 10:11:29;;;;;;;7.50;3.55;;;;;;;-145.69;47.84;51798.81;5095870;28;20198;-84
2023/07/24 10:13:56;;;;;;;8.30;3.85;;;;;;;-145.69;48.62;51788.94;5095815;28;20218;-84
2023/07/24 10:16:23;;;;;;;8.90;4.22;;;;;;;-145.69;49.39;51790.91;5095640;28;20221;-84
2023/07/24 10:18:51;;;;;;;8.38;4.20;;;;;;;-145.69;50.93;51781.00;5100267;28;20289;-84
2023/07/24 10:21:17;;;;;;;14.65;4.65;;;;;;;-145.69;51.61;51790.91;5106463;28;20209;-84
2023/07/24 10:23:46;;;;;;;14.77;4.30;;;;;;;-145.69;51.99;51826.56;5100584;28;20194;-84
2023/07/24 10:26:14;;;;;;;7.68;4.03;;;;;;;-145.69;58.66;51830.50;5097292;28;20230;-83
2023/07/24 10:28:41;;;;;;;10.93;4.60;;;;;;;-145.69;63.69;51836.44;5097026;28;20567;-86
2023/07/24 10:31:19;;;;;;;9.50;4.88;;;;;;;-145.69;65.74;51842.38;5096132;28;20198;-84
2023/07/24 10:33:46;;;;;;;9.35;4.90;;;;;;;-145.69;66.60;51862.19;5095880;28;20194;-84
2023/07/24 10:36:19;;;;;;;9.02;4.75;;;;;;;-145.69;67.29;51820.59;5095669;28;20221;-85
2023/07/24 10:38:46;;;;;;;9.15;4.90;;;;;;;-145.69;68.18;51858.22;5095986;28;20198;-85
2023/07/24 10:41:13;;;;;;;8.73;4.95;;;;;;;-145.69;67.89;51838.44;5095996;28;20198;-85
2023/07/24 10:43:44;;;;;;;9.63;4.65;;;;;;;-145.69;67.99;51842.38;5095274;28;20204;-85
2023/07/24 10:46:11;;;;;;;9.95;4.90;;;;;;;-145.69;69.45;51870.13;5091526;28;20206;-85
2023/07/24 10:48:39;;;;;;;10.00;4.90;;;;;;;-145.69;69.28;51848.34;5090047;28;20198;-84
2023/07/24 10:51:14;;;;;;;11.93;5.32;;;;;;;-145.69;68.96;51862.19;5095518;28;20213;-84
2023/07/24 10:56:38;;;;;;;11.05;4.65;;;;;;;-145.69;70.43;51862.19;5087759;28;20312;-83
2023/07/24 10:59:05;;;;;;;10.18;5.53;;;;;;;-145.69;70.19;51844.38;5101927;28;20205;-83
2023/07/24 11:01:33;;;;;;;11.55;5.13;;;;;;;-145.69;70.13;51862.19;5095069;28;20213;-82
2023/07/24 11:04:00;;;;;;;12.02;5.13;;;;;;;-145.69;70.39;51862.19;5094652;28;20198;-81
2023/07/24 11:06:27;;;;;;;11.15;4.97;;;;;;;-145.69;70.28;51834.47;5095017;28;20229;-83
2023/07/24 11:08:57;;;;;;;8.80;4.65;;;;;;;-145.69;72.07;51842.38;5094571;28;20201;-82
2023/07/24 11:11:28;;;;;;;8.02;4.40;;;;;;;-145.69;71.76;51828.53;5094991;28;20195;-82
2023/07/24 11:13:54;;;;;;;7.60;4.68;;;;;;;-145.69;71.18;51834.47;5094466;28;20241;-82